sensor_id;sensor_type;location;lat;lon;timestamp;temperature;humidity
3528;DHT22;1778;47.966;7.854;2024-02-16T00:00:51;10.80;99.90
3528;DHT22;1778;47.966;7.854;2024-02-16T00:01:52;10.90;99.90
3528;DHT22;1778;47.966;7.854;2024-02-16T00:02:54;10.90;99.90
3528;DHT22;1778;47.966;7.854;2024-02-16T00:03:55;10.80;99.90
3528;DHT22;1778;47.966;7.854;2024-02-16T00:04:57;10.80;99.90
3528;DHT22;1778;47.966;7.854;2024-02-16T00:05:59;10.80;99.90
3528;DHT22;1778;47.966;7.854;2024-02-16T00:07:01;10.80;99.90
3528;DHT22;1778;47.966;7.854;2024-02-16T00:08:02;10.70;99.90
3528;DHT22;1778;47.966;7.854;2024-02-16T00:09:04;10.70;99.90
3528;DHT22;1778;47.966;7.854;2024-02-16T00:10:06;10.70;99.90
3528;DHT22;1778;47.966;7.854;2024-02-16T00:11:08;10.70;99.90
3528;DHT22;1778;47.966;7.854;2024-02-16T00:12:11;10.60;99.90
3528;DHT22;1778;47.966;7.854;2024-02-16T00:13:13;10.70;99.90
3528;DHT22;1778;47.966;7.854;2024-02-16T00:14:15;10.60;99.90
3528;DHT22;1778;47.966;7.854;2024-02-16T00:15:16;10.70;99.90
3528;DHT22;1778;47.966;7.854;2024-02-16T00:16:18;10.70;99.90
3528;DHT22;1778;47.966;7.854;2024-02-16T00:17:20;10.70;99.90
3528;DHT22;1778;47.966;7.854;2024-02-16T00:18:22;10.70;99.90
3528;DHT22;1778;47.966;7.854;2024-02-16T00:19:24;10.70;99.90
3528;DHT22;1778;47.966;7.854;2024-02-16T00:20:26;10.70;99.90
3528;DHT22;1778;47.966;7.854;2024-02-16T00:21:27;10.70;99.90
3528;DHT22;1778;47.966;7.854;2024-02-16T00:22:54;10.70;99.90
3528;DHT22;1778;47.966;7.854;2024-02-16T00:23:56;10.70;99.90
3528;DHT22;1778;47.966;7.854;2024-02-16T00:24:58;10.80;99.90
3528;DHT22;1778;47.966;7.854;2024-02-16T00:26:01;10.80;99.90
3528;DHT22;1778;47.966;7.854;2024-02-16T00:27:03;10.80;99.90
3528;DHT22;1778;47.966;7.854;2024-02-16T00:28:08;10.80;99.90
3528;DHT22;1778;47.966;7.854;2024-02-16T00:29:09;10.80;99.90
3528;DHT22;1778;47.966;7.854;2024-02-16T00:30:11;10.80;99.90
3528;DHT22;1778;47.966;7.854;2024-02-16T00:31:12;10.80;99.90
3528;DHT22;1778;47.966;7.854;2024-02-16T00:32:14;10.80;99.90
3528;DHT22;1778;47.966;7.854;2024-02-16T00:33:16;10.80;99.90
3528;DHT22;1778;47.966;7.854;2024-02-16T00:34:20;10.90;99.90
3528;DHT22;1778;47.966;7.854;2024-02-16T00:35:22;10.90;99.90
3528;DHT22;1778;47.966;7.854;2024-02-16T00:36:26;10.90;99.90
3528;DHT22;1778;47.966;7.854;2024-02-16T00:37:29;11.00;99.90
3528;DHT22;1778;47.966;7.854;2024-02-16T00:38:31;11.00;99.90
3528;DHT22;1778;47.966;7.854;2024-02-16T00:39:32;11.00;99.90
3528;DHT22;1778;47.966;7.854;2024-02-16T00:40:33;11.00;99.90
3528;DHT22;1778;47.966;7.854;2024-02-16T00:41:37;11.00;99.90
3528;DHT22;1778;47.966;7.854;2024-02-16T00:42:39;11.10;99.90
3528;DHT22;1778;47.966;7.854;2024-02-16T00:43:40;11.10;99.90
3528;DHT22;1778;47.966;7.854;2024-02-16T00:44:42;11.10;99.90
3528;DHT22;1778;47.966;7.854;2024-02-16T00:45:43;11.10;99.90
3528;DHT22;1778;47.966;7.854;2024-02-16T00:46:46;11.00;99.90
3528;DHT22;1778;47.966;7.854;2024-02-16T00:47:48;11.10;99.90
3528;DHT22;1778;47.966;7.854;2024-02-16T00:48:51;11.10;99.90
3528;DHT22;1778;47.966;7.854;2024-02-16T00:49:53;11.10;99.90
3528;DHT22;1778;47.966;7.854;2024-02-16T00:50:54;11.20;99.90
3528;DHT22;1778;47.966;7.854;2024-02-16T00:51:56;11.20;99.90
3528;DHT22;1778;47.966;7.854;2024-02-16T00:53:00;11.20;99.90
3528;DHT22;1778;47.966;7.854;2024-02-16T00:54:02;11.20;99.90
3528;DHT22;1778;47.966;7.854;2024-02-16T00:55:04;11.20;99.90
3528;DHT22;1778;47.966;7.854;2024-02-16T00:56:06;11.20;99.90
3528;DHT22;1778;47.966;7.854;2024-02-16T00:57:08;11.30;99.90
3528;DHT22;1778;47.966;7.854;2024-02-16T00:58:10;11.20;99.90
3528;DHT22;1778;47.966;7.854;2024-02-16T00:59:11;11.30;99.90
3528;DHT22;1778;47.966;7.854;2024-02-16T01:00:13;11.20;99.90
3528;DHT22;1778;47.966;7.854;2024-02-16T01:01:16;11.30;99.90
3528;DHT22;1778;47.966;7.854;2024-02-16T01:02:18;11.40;99.90
3528;DHT22;1778;47.966;7.854;2024-02-16T01:03:20;11.40;99.90
3528;DHT22;1778;47.966;7.854;2024-02-16T01:04:23;11.40;99.90
3528;DHT22;1778;47.966;7.854;2024-02-16T01:05:25;11.30;99.90
3528;DHT22;1778;47.966;7.854;2024-02-16T01:06:26;11.40;99.90
3528;DHT22;1778;47.966;7.854;2024-02-16T01:07:28;11.40;99.90
3528;DHT22;1778;47.966;7.854;2024-02-16T01:08:30;11.30;99.90
3528;DHT22;1778;47.966;7.854;2024-02-16T01:09:31;11.40;99.90
3528;DHT22;1778;47.966;7.854;2024-02-16T01:10:33;11.40;99.90
3528;DHT22;1778;47.966;7.854;2024-02-16T01:11:35;11.40;99.90
3528;DHT22;1778;47.966;7.854;2024-02-16T01:12:36;11.30;99.90
3528;DHT22;1778;47.966;7.854;2024-02-16T01:13:39;11.30;99.90
3528;DHT22;1778;47.966;7.854;2024-02-16T01:14:41;11.40;99.90
3528;DHT22;1778;47.966;7.854;2024-02-16T01:15:42;11.40;99.90
3528;DHT22;1778;47.966;7.854;2024-02-16T01:16:45;11.40;99.90
3528;DHT22;1778;47.966;7.854;2024-02-16T01:17:47;11.40;99.90
3528;DHT22;1778;47.966;7.854;2024-02-16T01:18:48;11.30;99.90
3528;DHT22;1778;47.966;7.854;2024-02-16T01:19:50;11.40;99.90
3528;DHT22;1778;47.966;7.854;2024-02-16T01:20:52;11.40;99.90
3528;DHT22;1778;47.966;7.854;2024-02-16T01:21:53;11.40;99.90
3528;DHT22;1778;47.966;7.854;2024-02-16T01:22:58;11.40;99.90
3528;DHT22;1778;47.966;7.854;2024-02-16T01:24:00;11.40;99.90
3528;DHT22;1778;47.966;7.854;2024-02-16T01:25:02;11.40;99.90
3528;DHT22;1778;47.966;7.854;2024-02-16T01:26:04;11.40;99.90
3528;DHT22;1778;47.966;7.854;2024-02-16T01:27:06;11.40;99.90
3528;DHT22;1778;47.966;7.854;2024-02-16T01:28:08;11.30;99.90
3528;DHT22;1778;47.966;7.854;2024-02-16T01:29:09;11.30;99.90
3528;DHT22;1778;47.966;7.854;2024-02-16T01:30:10;11.30;99.90
3528;DHT22;1778;47.966;7.854;2024-02-16T01:31:12;11.30;99.90
3528;DHT22;1778;47.966;7.854;2024-02-16T01:32:14;11.30;99.90
3528;DHT22;1778;47.966;7.854;2024-02-16T01:33:15;11.30;99.90
3528;DHT22;1778;47.966;7.854;2024-02-16T01:34:17;11.40;99.90
3528;DHT22;1778;47.966;7.854;2024-02-16T01:35:18;11.40;99.90
3528;DHT22;1778;47.966;7.854;2024-02-16T01:36:20;11.50;99.90
3528;DHT22;1778;47.966;7.854;2024-02-16T01:37:21;11.50;99.90
3528;DHT22;1778;47.966;7.854;2024-02-16T01:38:22;11.50;99.90
3528;DHT22;1778;47.966;7.854;2024-02-16T01:39:24;11.40;99.90
3528;DHT22;1778;47.966;7.854;2024-02-16T01:40:26;11.40;99.90
3528;DHT22;1778;47.966;7.854;2024-02-16T01:41:28;11.40;99.90
3528;DHT22;1778;47.966;7.854;2024-02-16T01:42:29;11.40;99.90
3528;DHT22;1778;47.966;7.854;2024-02-16T01:43:30;11.40;99.90
3528;DHT22;1778;47.966;7.854;2024-02-16T01:44:32;11.40;99.90
3528;DHT22;1778;47.966;7.854;2024-02-16T01:45:34;11.40;99.90
3528;DHT22;1778;47.966;7.854;2024-02-16T01:46:35;11.40;99.90
3528;DHT22;1778;47.966;7.854;2024-02-16T01:47:37;11.40;99.90
3528;DHT22;1778;47.966;7.854;2024-02-16T01:48:39;11.40;99.90
3528;DHT22;1778;47.966;7.854;2024-02-16T01:49:41;11.40;99.90
3528;DHT22;1778;47.966;7.854;2024-02-16T01:50:43;11.40;99.90
3528;DHT22;1778;47.966;7.854;2024-02-16T01:51:46;11.40;99.90
3528;DHT22;1778;47.966;7.854;2024-02-16T01:52:49;11.40;99.90
3528;DHT22;1778;47.966;7.854;2024-02-16T01:53:51;11.40;99.90
3528;DHT22;1778;47.966;7.854;2024-02-16T01:54:55;11.40;99.90
3528;DHT22;1778;47.966;7.854;2024-02-16T01:55:57;11.50;99.90
3528;DHT22;1778;47.966;7.854;2024-02-16T01:56:59;11.50;99.90
3528;DHT22;1778;47.966;7.854;2024-02-16T01:58:03;11.50;99.90
3528;DHT22;1778;47.966;7.854;2024-02-16T01:59:05;11.50;99.90
3528;DHT22;1778;47.966;7.854;2024-02-16T02:00:07;11.60;99.90
3528;DHT22;1778;47.966;7.854;2024-02-16T02:01:09;11.60;99.90
3528;DHT22;1778;47.966;7.854;2024-02-16T02:02:11;11.50;99.90
3528;DHT22;1778;47.966;7.854;2024-02-16T02:03:12;11.60;99.90
3528;DHT22;1778;47.966;7.854;2024-02-16T02:04:14;11.60;99.90
3528;DHT22;1778;47.966;7.854;2024-02-16T02:05:17;11.60;99.90
3528;DHT22;1778;47.966;7.854;2024-02-16T02:06:18;11.50;99.90
3528;DHT22;1778;47.966;7.854;2024-02-16T02:07:25;11.60;99.90
3528;DHT22;1778;47.966;7.854;2024-02-16T02:08:30;11.60;99.90
3528;DHT22;1778;47.966;7.854;2024-02-16T02:09:32;11.60;99.90
3528;DHT22;1778;47.966;7.854;2024-02-16T02:10:34;11.60;99.90
3528;DHT22;1778;47.966;7.854;2024-02-16T02:11:36;11.50;99.90
3528;DHT22;1778;47.966;7.854;2024-02-16T02:12:39;11.50;99.90
3528;DHT22;1778;47.966;7.854;2024-02-16T02:13:41;11.50;99.90
3528;DHT22;1778;47.966;7.854;2024-02-16T02:14:43;11.50;99.90
3528;DHT22;1778;47.966;7.854;2024-02-16T02:15:45;11.50;99.90
3528;DHT22;1778;47.966;7.854;2024-02-16T02:16:47;11.50;99.90
3528;DHT22;1778;47.966;7.854;2024-02-16T02:17:59;11.40;99.90
3528;DHT22;1778;47.966;7.854;2024-02-16T02:19:00;11.40;99.90
3528;DHT22;1778;47.966;7.854;2024-02-16T02:20:03;11.40;99.90
3528;DHT22;1778;47.966;7.854;2024-02-16T02:21:05;11.40;99.90
3528;DHT22;1778;47.966;7.854;2024-02-16T02:22:14;11.40;99.90
3528;DHT22;1778;47.966;7.854;2024-02-16T02:23:17;11.30;99.90
3528;DHT22;1778;47.966;7.854;2024-02-16T02:24:18;11.30;99.90
3528;DHT22;1778;47.966;7.854;2024-02-16T02:25:22;11.30;99.90
3528;DHT22;1778;47.966;7.854;2024-02-16T02:26:27;11.40;99.90
3528;DHT22;1778;47.966;7.854;2024-02-16T02:27:29;11.40;99.90
3528;DHT22;1778;47.966;7.854;2024-02-16T02:28:30;11.40;99.90
3528;DHT22;1778;47.966;7.854;2024-02-16T02:29:32;11.30;99.90
3528;DHT22;1778;47.966;7.854;2024-02-16T02:30:34;11.30;99.90
3528;DHT22;1778;47.966;7.854;2024-02-16T02:31:36;11.30;99.90
3528;DHT22;1778;47.966;7.854;2024-02-16T02:32:37;11.30;99.90
3528;DHT22;1778;47.966;7.854;2024-02-16T02:33:38;11.30;99.90
3528;DHT22;1778;47.966;7.854;2024-02-16T02:34:40;11.30;99.90
3528;DHT22;1778;47.966;7.854;2024-02-16T02:35:42;11.30;99.90
3528;DHT22;1778;47.966;7.854;2024-02-16T02:36:44;11.20;99.90
3528;DHT22;1778;47.966;7.854;2024-02-16T02:37:45;11.20;99.90
3528;DHT22;1778;47.966;7.854;2024-02-16T02:38:47;11.20;99.90
3528;DHT22;1778;47.966;7.854;2024-02-16T02:39:48;11.20;99.90
3528;DHT22;1778;47.966;7.854;2024-02-16T02:40:50;11.10;99.90
3528;DHT22;1778;47.966;7.854;2024-02-16T02:41:52;11.10;99.90
3528;DHT22;1778;47.966;7.854;2024-02-16T02:42:53;11.10;99.90
3528;DHT22;1778;47.966;7.854;2024-02-16T02:43:55;11.10;99.90
3528;DHT22;1778;47.966;7.854;2024-02-16T02:44:56;11.10;99.90
3528;DHT22;1778;47.966;7.854;2024-02-16T02:45:57;11.10;99.90
3528;DHT22;1778;47.966;7.854;2024-02-16T02:46:59;11.10;99.90
3528;DHT22;1778;47.966;7.854;2024-02-16T02:48:00;11.20;99.90
3528;DHT22;1778;47.966;7.854;2024-02-16T02:49:02;11.20;99.90
3528;DHT22;1778;47.966;7.854;2024-02-16T02:50:05;11.20;99.90
3528;DHT22;1778;47.966;7.854;2024-02-16T02:51:07;11.20;99.90
3528;DHT22;1778;47.966;7.854;2024-02-16T02:52:09;11.20;99.90
3528;DHT22;1778;47.966;7.854;2024-02-16T02:53:10;11.20;99.90
3528;DHT22;1778;47.966;7.854;2024-02-16T02:54:11;11.10;99.90
3528;DHT22;1778;47.966;7.854;2024-02-16T02:55:13;11.10;99.90
3528;DHT22;1778;47.966;7.854;2024-02-16T02:56:15;11.20;99.90
3528;DHT22;1778;47.966;7.854;2024-02-16T02:57:17;11.20;99.90
3528;DHT22;1778;47.966;7.854;2024-02-16T02:58:18;11.20;99.90
3528;DHT22;1778;47.966;7.854;2024-02-16T02:59:20;11.10;99.90
3528;DHT22;1778;47.966;7.854;2024-02-16T03:00:22;11.10;99.90
3528;DHT22;1778;47.966;7.854;2024-02-16T03:01:23;11.10;99.90
3528;DHT22;1778;47.966;7.854;2024-02-16T03:02:25;11.10;99.90
3528;DHT22;1778;47.966;7.854;2024-02-16T03:03:27;11.10;99.90
3528;DHT22;1778;47.966;7.854;2024-02-16T03:04:31;11.20;99.90
3528;DHT22;1778;47.966;7.854;2024-02-16T03:05:32;11.20;99.90
3528;DHT22;1778;47.966;7.854;2024-02-16T03:06:34;11.20;99.90
3528;DHT22;1778;47.966;7.854;2024-02-16T03:07:35;11.30;99.90
3528;DHT22;1778;47.966;7.854;2024-02-16T03:08:37;11.30;99.90
3528;DHT22;1778;47.966;7.854;2024-02-16T03:09:39;11.30;99.90
3528;DHT22;1778;47.966;7.854;2024-02-16T03:10:43;11.40;99.90
3528;DHT22;1778;47.966;7.854;2024-02-16T03:11:45;11.40;99.90
3528;DHT22;1778;47.966;7.854;2024-02-16T03:12:46;11.50;99.90
3528;DHT22;1778;47.966;7.854;2024-02-16T03:13:50;11.40;99.90
3528;DHT22;1778;47.966;7.854;2024-02-16T03:14:51;11.40;99.90
3528;DHT22;1778;47.966;7.854;2024-02-16T03:15:53;11.30;99.90
3528;DHT22;1778;47.966;7.854;2024-02-16T03:16:54;11.30;99.90
3528;DHT22;1778;47.966;7.854;2024-02-16T03:17:56;11.30;99.90
3528;DHT22;1778;47.966;7.854;2024-02-16T03:18:57;11.30;99.90
3528;DHT22;1778;47.966;7.854;2024-02-16T03:19:59;11.40;99.90
3528;DHT22;1778;47.966;7.854;2024-02-16T03:21:01;11.40;99.90
3528;DHT22;1778;47.966;7.854;2024-02-16T03:22:03;11.30;99.90
3528;DHT22;1778;47.966;7.854;2024-02-16T03:23:05;11.40;99.90
3528;DHT22;1778;47.966;7.854;2024-02-16T03:24:06;11.40;99.90
3528;DHT22;1778;47.966;7.854;2024-02-16T03:25:08;11.40;99.90
3528;DHT22;1778;47.966;7.854;2024-02-16T03:26:17;11.40;99.90
3528;DHT22;1778;47.966;7.854;2024-02-16T03:27:19;11.40;99.90
3528;DHT22;1778;47.966;7.854;2024-02-16T03:28:21;11.50;99.90
3528;DHT22;1778;47.966;7.854;2024-02-16T03:29:23;11.50;99.90
3528;DHT22;1778;47.966;7.854;2024-02-16T03:30:24;11.50;99.90
3528;DHT22;1778;47.966;7.854;2024-02-16T03:31:26;11.60;99.90
3528;DHT22;1778;47.966;7.854;2024-02-16T03:32:27;11.60;99.90
3528;DHT22;1778;47.966;7.854;2024-02-16T03:33:29;11.50;99.90
3528;DHT22;1778;47.966;7.854;2024-02-16T03:34:30;11.40;99.90
3528;DHT22;1778;47.966;7.854;2024-02-16T03:35:32;11.40;99.90
3528;DHT22;1778;47.966;7.854;2024-02-16T03:36:33;11.40;99.90
3528;DHT22;1778;47.966;7.854;2024-02-16T03:37:35;11.50;99.90
3528;DHT22;1778;47.966;7.854;2024-02-16T03:38:36;11.40;99.90
3528;DHT22;1778;47.966;7.854;2024-02-16T03:39:38;11.40;99.90
3528;DHT22;1778;47.966;7.854;2024-02-16T03:40:39;11.40;99.90
3528;DHT22;1778;47.966;7.854;2024-02-16T03:41:41;11.50;99.90
3528;DHT22;1778;47.966;7.854;2024-02-16T03:42:43;11.40;99.90
3528;DHT22;1778;47.966;7.854;2024-02-16T03:43:44;11.30;99.90
3528;DHT22;1778;47.966;7.854;2024-02-16T03:44:46;11.30;99.90
3528;DHT22;1778;47.966;7.854;2024-02-16T03:45:47;11.30;99.90
3528;DHT22;1778;47.966;7.854;2024-02-16T03:46:49;11.40;99.90
3528;DHT22;1778;47.966;7.854;2024-02-16T03:47:53;11.30;99.90
3528;DHT22;1778;47.966;7.854;2024-02-16T03:48:55;11.30;99.90
3528;DHT22;1778;47.966;7.854;2024-02-16T03:49:57;11.30;99.90
3528;DHT22;1778;47.966;7.854;2024-02-16T03:50:59;11.20;99.90
3528;DHT22;1778;47.966;7.854;2024-02-16T03:52:00;11.30;99.90
3528;DHT22;1778;47.966;7.854;2024-02-16T03:53:02;11.30;99.90
3528;DHT22;1778;47.966;7.854;2024-02-16T03:54:03;11.30;99.90
3528;DHT22;1778;47.966;7.854;2024-02-16T03:55:05;11.30;99.90
3528;DHT22;1778;47.966;7.854;2024-02-16T03:56:07;11.20;99.90
3528;DHT22;1778;47.966;7.854;2024-02-16T03:57:09;11.20;99.90
3528;DHT22;1778;47.966;7.854;2024-02-16T03:58:13;11.30;99.90
3528;DHT22;1778;47.966;7.854;2024-02-16T03:59:15;11.30;99.90
3528;DHT22;1778;47.966;7.854;2024-02-16T04:00:17;11.30;99.90
3528;DHT22;1778;47.966;7.854;2024-02-16T04:01:18;11.20;99.90
3528;DHT22;1778;47.966;7.854;2024-02-16T04:02:45;11.20;99.90
3528;DHT22;1778;47.966;7.854;2024-02-16T04:03:47;11.20;99.90
3528;DHT22;1778;47.966;7.854;2024-02-16T04:04:49;11.10;99.90
3528;DHT22;1778;47.966;7.854;2024-02-16T04:05:50;11.10;99.90
3528;DHT22;1778;47.966;7.854;2024-02-16T04:06:54;11.20;99.90
3528;DHT22;1778;47.966;7.854;2024-02-16T04:07:55;11.10;99.90
3528;DHT22;1778;47.966;7.854;2024-02-16T04:08:57;11.10;99.90
3528;DHT22;1778;47.966;7.854;2024-02-16T04:09:58;11.10;99.90
3528;DHT22;1778;47.966;7.854;2024-02-16T04:11:01;11.10;99.90
3528;DHT22;1778;47.966;7.854;2024-02-16T04:12:04;11.10;99.90
3528;DHT22;1778;47.966;7.854;2024-02-16T04:13:06;11.10;99.90
3528;DHT22;1778;47.966;7.854;2024-02-16T04:14:07;11.10;99.90
3528;DHT22;1778;47.966;7.854;2024-02-16T04:15:09;11.20;99.90
3528;DHT22;1778;47.966;7.854;2024-02-16T04:16:11;11.20;99.90
3528;DHT22;1778;47.966;7.854;2024-02-16T04:17:12;11.20;99.90
3528;DHT22;1778;47.966;7.854;2024-02-16T04:18:14;11.20;99.90
3528;DHT22;1778;47.966;7.854;2024-02-16T04:19:16;11.20;99.90
3528;DHT22;1778;47.966;7.854;2024-02-16T04:20:18;11.20;99.90
3528;DHT22;1778;47.966;7.854;2024-02-16T04:21:20;11.20;99.90
3528;DHT22;1778;47.966;7.854;2024-02-16T04:22:22;11.20;99.90
3528;DHT22;1778;47.966;7.854;2024-02-16T04:23:23;11.30;99.90
3528;DHT22;1778;47.966;7.854;2024-02-16T04:24:25;11.30;99.90
3528;DHT22;1778;47.966;7.854;2024-02-16T04:25:26;11.30;99.90
3528;DHT22;1778;47.966;7.854;2024-02-16T04:26:28;11.20;99.90
3528;DHT22;1778;47.966;7.854;2024-02-16T04:27:30;11.20;99.90
3528;DHT22;1778;47.966;7.854;2024-02-16T04:28:31;11.20;99.90
3528;DHT22;1778;47.966;7.854;2024-02-16T04:29:32;11.20;99.90
3528;DHT22;1778;47.966;7.854;2024-02-16T04:30:34;11.20;99.90
3528;DHT22;1778;47.966;7.854;2024-02-16T04:31:39;11.20;99.90
3528;DHT22;1778;47.966;7.854;2024-02-16T04:32:41;11.20;99.90
3528;DHT22;1778;47.966;7.854;2024-02-16T04:33:43;11.20;99.90
3528;DHT22;1778;47.966;7.854;2024-02-16T04:34:45;11.20;99.90
3528;DHT22;1778;47.966;7.854;2024-02-16T04:35:48;11.20;99.90
3528;DHT22;1778;47.966;7.854;2024-02-16T04:36:52;11.20;99.90
3528;DHT22;1778;47.966;7.854;2024-02-16T04:37:53;11.20;99.90
3528;DHT22;1778;47.966;7.854;2024-02-16T04:38:54;11.10;99.90
3528;DHT22;1778;47.966;7.854;2024-02-16T04:39:56;11.10;99.90
3528;DHT22;1778;47.966;7.854;2024-02-16T04:40:57;11.10;99.90
3528;DHT22;1778;47.966;7.854;2024-02-16T04:41:59;11.10;99.90
3528;DHT22;1778;47.966;7.854;2024-02-16T04:43:00;11.10;99.90
3528;DHT22;1778;47.966;7.854;2024-02-16T04:44:02;11.10;99.90
3528;DHT22;1778;47.966;7.854;2024-02-16T04:45:04;11.00;99.90
3528;DHT22;1778;47.966;7.854;2024-02-16T04:46:07;11.00;99.90
3528;DHT22;1778;47.966;7.854;2024-02-16T04:47:08;11.00;99.90
3528;DHT22;1778;47.966;7.854;2024-02-16T04:48:10;11.10;99.90
3528;DHT22;1778;47.966;7.854;2024-02-16T04:49:11;11.10;99.90
3528;DHT22;1778;47.966;7.854;2024-02-16T04:50:14;11.10;99.90
3528;DHT22;1778;47.966;7.854;2024-02-16T04:51:16;11.10;99.90
3528;DHT22;1778;47.966;7.854;2024-02-16T04:52:18;11.00;99.90
3528;DHT22;1778;47.966;7.854;2024-02-16T04:53:19;11.10;99.90
3528;DHT22;1778;47.966;7.854;2024-02-16T04:54:20;11.00;99.90
3528;DHT22;1778;47.966;7.854;2024-02-16T04:55:22;11.00;99.90
3528;DHT22;1778;47.966;7.854;2024-02-16T04:56:24;10.90;99.90
3528;DHT22;1778;47.966;7.854;2024-02-16T04:57:25;10.90;99.90
3528;DHT22;1778;47.966;7.854;2024-02-16T04:58:27;10.90;99.90
3528;DHT22;1778;47.966;7.854;2024-02-16T04:59:29;10.80;99.90
3528;DHT22;1778;47.966;7.854;2024-02-16T05:00:31;10.90;99.90
3528;DHT22;1778;47.966;7.854;2024-02-16T05:01:32;10.90;99.90
3528;DHT22;1778;47.966;7.854;2024-02-16T05:02:34;10.80;99.90
3528;DHT22;1778;47.966;7.854;2024-02-16T05:03:36;10.80;99.90
3528;DHT22;1778;47.966;7.854;2024-02-16T05:04:38;10.80;99.90
3528;DHT22;1778;47.966;7.854;2024-02-16T05:05:40;10.80;99.90
3528;DHT22;1778;47.966;7.854;2024-02-16T05:06:42;10.80;99.90
3528;DHT22;1778;47.966;7.854;2024-02-16T05:07:48;10.80;99.90
3528;DHT22;1778;47.966;7.854;2024-02-16T05:08:49;10.80;99.90
3528;DHT22;1778;47.966;7.854;2024-02-16T05:09:51;10.70;99.90
3528;DHT22;1778;47.966;7.854;2024-02-16T05:10:57;10.70;99.90
3528;DHT22;1778;47.966;7.854;2024-02-16T05:11:58;10.70;99.90
3528;DHT22;1778;47.966;7.854;2024-02-16T05:12:59;10.70;99.90
3528;DHT22;1778;47.966;7.854;2024-02-16T05:14:01;10.70;99.90
3528;DHT22;1778;47.966;7.854;2024-02-16T05:15:03;10.70;99.90
3528;DHT22;1778;47.966;7.854;2024-02-16T05:16:08;10.60;99.90
3528;DHT22;1778;47.966;7.854;2024-02-16T05:17:10;10.60;99.90
3528;DHT22;1778;47.966;7.854;2024-02-16T05:18:14;10.60;99.90
3528;DHT22;1778;47.966;7.854;2024-02-16T05:19:15;10.60;99.90
3528;DHT22;1778;47.966;7.854;2024-02-16T05:20:18;10.60;99.90
3528;DHT22;1778;47.966;7.854;2024-02-16T05:21:20;10.60;99.90
3528;DHT22;1778;47.966;7.854;2024-02-16T05:22:22;10.60;99.90
3528;DHT22;1778;47.966;7.854;2024-02-16T05:23:24;10.70;99.90
3528;DHT22;1778;47.966;7.854;2024-02-16T05:24:25;10.70;99.90
3528;DHT22;1778;47.966;7.854;2024-02-16T05:25:27;10.70;99.90
3528;DHT22;1778;47.966;7.854;2024-02-16T05:26:28;10.60;99.90
3528;DHT22;1778;47.966;7.854;2024-02-16T05:27:29;10.60;99.90
3528;DHT22;1778;47.966;7.854;2024-02-16T05:28:31;10.60;99.90
3528;DHT22;1778;47.966;7.854;2024-02-16T05:29:33;10.60;99.90
3528;DHT22;1778;47.966;7.854;2024-02-16T05:30:35;10.60;99.90
3528;DHT22;1778;47.966;7.854;2024-02-16T05:31:36;10.60;99.90
3528;DHT22;1778;47.966;7.854;2024-02-16T05:32:38;10.60;99.90
3528;DHT22;1778;47.966;7.854;2024-02-16T05:33:40;10.60;99.90
3528;DHT22;1778;47.966;7.854;2024-02-16T05:34:42;10.60;99.90
3528;DHT22;1778;47.966;7.854;2024-02-16T05:35:44;10.60;99.90
3528;DHT22;1778;47.966;7.854;2024-02-16T05:36:52;10.60;99.90
3528;DHT22;1778;47.966;7.854;2024-02-16T05:37:54;10.60;99.90
3528;DHT22;1778;47.966;7.854;2024-02-16T05:38:57;10.60;99.90
3528;DHT22;1778;47.966;7.854;2024-02-16T05:40:08;10.50;99.90
3528;DHT22;1778;47.966;7.854;2024-02-16T05:41:20;10.60;99.90
3528;DHT22;1778;47.966;7.854;2024-02-16T05:42:21;10.60;99.90
3528;DHT22;1778;47.966;7.854;2024-02-16T05:43:24;10.60;99.90
3528;DHT22;1778;47.966;7.854;2024-02-16T05:44:26;10.60;99.90
3528;DHT22;1778;47.966;7.854;2024-02-16T05:45:28;10.70;99.90
3528;DHT22;1778;47.966;7.854;2024-02-16T05:46:30;10.70;99.90
3528;DHT22;1778;47.966;7.854;2024-02-16T05:47:31;10.60;99.90
3528;DHT22;1778;47.966;7.854;2024-02-16T05:48:34;10.70;99.90
3528;DHT22;1778;47.966;7.854;2024-02-16T05:49:39;10.60;99.90
3528;DHT22;1778;47.966;7.854;2024-02-16T05:50:41;10.60;99.90
3528;DHT22;1778;47.966;7.854;2024-02-16T05:51:45;10.60;99.90
3528;DHT22;1778;47.966;7.854;2024-02-16T05:53:07;10.60;99.90
3528;DHT22;1778;47.966;7.854;2024-02-16T05:54:11;10.60;99.90
3528;DHT22;1778;47.966;7.854;2024-02-16T05:55:14;10.60;99.90
3528;DHT22;1778;47.966;7.854;2024-02-16T05:56:16;10.70;99.90
3528;DHT22;1778;47.966;7.854;2024-02-16T05:57:17;10.70;99.90
3528;DHT22;1778;47.966;7.854;2024-02-16T05:58:20;10.60;99.90
3528;DHT22;1778;47.966;7.854;2024-02-16T05:59:21;10.60;99.90
3528;DHT22;1778;47.966;7.854;2024-02-16T06:00:23;10.60;99.90
3528;DHT22;1778;47.966;7.854;2024-02-16T06:01:25;10.60;99.90
3528;DHT22;1778;47.966;7.854;2024-02-16T06:02:28;10.60;99.90
3528;DHT22;1778;47.966;7.854;2024-02-16T06:03:29;10.60;99.90
3528;DHT22;1778;47.966;7.854;2024-02-16T06:04:31;10.60;99.90
3528;DHT22;1778;47.966;7.854;2024-02-16T06:05:32;10.60;99.90
3528;DHT22;1778;47.966;7.854;2024-02-16T06:06:36;10.50;99.90
3528;DHT22;1778;47.966;7.854;2024-02-16T06:07:37;10.60;99.90
3528;DHT22;1778;47.966;7.854;2024-02-16T06:08:39;10.70;99.90
3528;DHT22;1778;47.966;7.854;2024-02-16T06:09:41;10.70;99.90
3528;DHT22;1778;47.966;7.854;2024-02-16T06:10:42;10.70;99.90
3528;DHT22;1778;47.966;7.854;2024-02-16T06:11:44;10.70;99.90
3528;DHT22;1778;47.966;7.854;2024-02-16T06:12:46;10.70;99.90
3528;DHT22;1778;47.966;7.854;2024-02-16T06:13:47;10.80;99.90
3528;DHT22;1778;47.966;7.854;2024-02-16T06:14:49;10.80;99.90
3528;DHT22;1778;47.966;7.854;2024-02-16T06:15:51;10.80;99.90
3528;DHT22;1778;47.966;7.854;2024-02-16T06:16:52;10.90;99.90
3528;DHT22;1778;47.966;7.854;2024-02-16T06:17:54;10.90;99.90
3528;DHT22;1778;47.966;7.854;2024-02-16T06:18:56;10.80;99.90
3528;DHT22;1778;47.966;7.854;2024-02-16T06:19:57;10.80;99.90
3528;DHT22;1778;47.966;7.854;2024-02-16T06:20:59;10.80;99.90
3528;DHT22;1778;47.966;7.854;2024-02-16T06:22:01;10.80;99.90
3528;DHT22;1778;47.966;7.854;2024-02-16T06:23:02;10.70;99.90
3528;DHT22;1778;47.966;7.854;2024-02-16T06:24:05;10.80;99.90
3528;DHT22;1778;47.966;7.854;2024-02-16T06:25:09;10.90;99.90
3528;DHT22;1778;47.966;7.854;2024-02-16T06:26:10;11.00;99.90
3528;DHT22;1778;47.966;7.854;2024-02-16T06:27:12;10.90;99.90
3528;DHT22;1778;47.966;7.854;2024-02-16T06:28:14;10.90;99.90
3528;DHT22;1778;47.966;7.854;2024-02-16T06:29:16;10.90;99.90
3528;DHT22;1778;47.966;7.854;2024-02-16T06:30:17;10.80;99.90
3528;DHT22;1778;47.966;7.854;2024-02-16T06:31:19;10.80;99.90
3528;DHT22;1778;47.966;7.854;2024-02-16T06:32:21;10.80;99.90
3528;DHT22;1778;47.966;7.854;2024-02-16T06:33:22;10.90;99.90
3528;DHT22;1778;47.966;7.854;2024-02-16T06:34:24;10.80;99.90
3528;DHT22;1778;47.966;7.854;2024-02-16T06:35:26;10.80;99.90
3528;DHT22;1778;47.966;7.854;2024-02-16T06:36:27;10.80;99.90
3528;DHT22;1778;47.966;7.854;2024-02-16T06:37:29;10.90;99.90
3528;DHT22;1778;47.966;7.854;2024-02-16T06:38:30;10.90;99.90
3528;DHT22;1778;47.966;7.854;2024-02-16T06:39:32;10.90;99.90
3528;DHT22;1778;47.966;7.854;2024-02-16T06:40:33;10.90;99.90
3528;DHT22;1778;47.966;7.854;2024-02-16T06:41:35;10.90;99.90
3528;DHT22;1778;47.966;7.854;2024-02-16T06:42:37;10.90;99.90
3528;DHT22;1778;47.966;7.854;2024-02-16T06:43:40;10.90;99.90
3528;DHT22;1778;47.966;7.854;2024-02-16T06:44:41;10.80;99.90
3528;DHT22;1778;47.966;7.854;2024-02-16T06:45:43;10.80;99.90
3528;DHT22;1778;47.966;7.854;2024-02-16T06:46:44;10.80;99.90